createdAt,value
2019-04-29T00:02:25.270Z,3.70
2019-04-29T00:04:55.903Z,5.30
2019-04-29T00:07:25.643Z,6.42
2019-04-29T00:09:55.324Z,3.22
2019-04-29T00:12:26.988Z,3.10
2019-04-29T00:14:57.919Z,2.97
2019-04-29T00:17:29.163Z,4.10
2019-04-29T00:22:33.428Z,2.55
2019-04-29T00:25:03.110Z,4.22
2019-04-29T00:27:33.740Z,4.30
2019-04-29T00:30:06.011Z,3.83
2019-04-29T00:35:06.167Z,3.10
2019-04-29T00:37:46.432Z,3.50
2019-04-29T00:40:35.062Z,4.15
2019-04-29T00:43:21.592Z,5.22
2019-04-29T00:45:51.275Z,3.70
2019-04-29T00:48:20.907Z,4.05
2019-04-29T00:50:50.617Z,4.47
2019-04-29T00:53:20.225Z,4.17
2019-04-29T00:55:51.371Z,4.17
2019-04-29T00:58:20.951Z,3.87
2019-04-29T01:00:50.690Z,5.05
2019-04-29T01:03:20.297Z,3.72
2019-04-29T01:05:50.107Z,5.90
2019-04-29T01:08:19.706Z,4.15
2019-04-29T01:10:49.323Z,3.52
2019-04-29T01:13:19.006Z,7.95
2019-04-29T01:15:48.610Z,5.83
2019-04-29T01:18:18.351Z,3.45
2019-04-29T01:20:48.062Z,3.45
2019-04-29T01:23:17.772Z,4.55
2019-04-29T01:25:49.017Z,5.80
2019-04-29T01:28:21.770Z,3.90
2019-04-29T01:30:56.207Z,7.03
2019-04-29T01:33:25.902Z,4.37
2019-04-29T01:36:14.687Z,4.72
2019-04-29T01:38:44.366Z,7.55
2019-04-29T01:41:27.902Z,4.97
2019-04-29T01:44:08.055Z,4.83
2019-04-29T01:46:37.693Z,6.95
2019-04-29T01:49:07.404Z,7.00
2019-04-29T01:51:37.115Z,4.87
2019-04-29T01:54:07.672Z,4.87
2019-04-29T01:56:39.141Z,4.92
2019-04-29T01:59:09.799Z,5.45
2019-04-29T02:01:39.537Z,7.30
2019-04-29T02:04:09.146Z,4.12
2019-04-29T02:06:39.823Z,7.33
2019-04-29T02:09:11.138Z,5.33
2019-04-29T02:11:40.809Z,4.95
2019-04-29T02:14:10.449Z,6.53
2019-04-29T02:16:40.153Z,6.10
2019-04-29T02:19:09.761Z,7.60
2019-04-29T02:21:42.269Z,6.20
2019-04-29T02:24:16.656Z,4.67
2019-04-29T02:26:46.371Z,5.92
2019-04-29T02:29:16.078Z,6.15
2019-04-29T02:31:48.112Z,5.40
2019-04-29T02:34:17.855Z,5.42
2019-04-29T02:36:49.165Z,4.90
2019-04-29T02:39:23.519Z,8.40
2019-04-29T02:42:00.984Z,5.97
2019-04-29T02:44:30.710Z,5.75
2019-04-29T02:47:00.301Z,4.83
2019-04-29T02:49:30.011Z,4.97
2019-04-29T02:51:59.648Z,6.58
2019-04-29T02:54:30.176Z,6.45
2019-04-29T02:57:02.931Z,5.60
2019-04-29T02:59:34.204Z,5.87
2019-04-29T03:02:05.457Z,5.60
2019-04-29T03:04:51.757Z,5.27
2019-04-29T03:07:22.586Z,7.75
2019-04-29T03:09:52.301Z,6.03
2019-04-29T03:12:21.908Z,7.95
2019-04-29T03:14:51.679Z,9.28
2019-04-29T03:17:21.499Z,8.05
2019-04-29T03:20:09.058Z,5.65
2019-04-29T03:22:43.243Z,5.35
2019-04-29T03:25:12.984Z,5.17
2019-04-29T03:27:43.721Z,6.03
2019-04-29T03:30:14.356Z,5.33
2019-04-29T03:32:45.093Z,6.25
2019-04-29T03:35:14.846Z,5.95
2019-04-29T03:37:44.620Z,8.18
2019-04-29T03:40:14.184Z,5.87
2019-04-29T03:42:44.128Z,6.55
2019-04-29T03:45:13.737Z,11.75
2019-04-29T03:47:43.420Z,6.70
2019-04-29T03:50:15.323Z,6.20
2019-04-29T03:52:45.117Z,8.98
2019-04-29T03:55:15.762Z,8.45
2019-04-29T03:57:48.262Z,7.12
2019-04-29T04:00:37.085Z,9.20
2019-04-29T04:03:17.318Z,8.23
2019-04-29T04:05:48.492Z,8.48
2019-04-29T04:08:25.669Z,10.50
2019-04-29T04:10:55.277Z,10.08
2019-04-29T04:13:26.711Z,9.25
2019-04-29T04:15:56.307Z,10.30
2019-04-29T04:18:27.281Z,11.03
2019-04-29T04:20:56.985Z,9.98
2019-04-29T04:23:26.563Z,14.65
2019-04-29T04:25:56.305Z,12.33
2019-04-29T04:28:25.990Z,12.47
2019-04-29T04:30:55.724Z,10.68
2019-04-29T04:33:25.435Z,11.60
2019-04-29T04:35:55.144Z,12.37
2019-04-29T04:38:24.829Z,13.25
2019-04-29T04:40:56.075Z,10.55
2019-04-29T04:43:25.810Z,12.00
2019-04-29T04:45:55.395Z,9.45
2019-04-29T04:48:25.099Z,11.68
2019-04-29T04:50:55.832Z,6.70
2019-04-29T04:53:25.571Z,10.90
2019-04-29T04:55:56.819Z,8.00
2019-04-29T04:58:26.416Z,7.95
2019-04-29T05:00:56.135Z,10.32
2019-04-29T05:03:25.847Z,16.15
2019-04-29T05:05:55.457Z,8.23
2019-04-29T05:08:25.164Z,6.87
2019-04-29T05:10:54.844Z,8.58
2019-04-29T05:13:28.153Z,10.65
2019-04-29T05:15:55.831Z,10.45
2019-04-29T05:18:25.437Z,12.55
2019-04-29T05:20:55.147Z,8.97
2019-04-29T05:23:24.755Z,7.87
2019-04-29T05:25:54.435Z,7.42
2019-04-29T05:28:24.061Z,9.73
2019-04-29T05:30:53.782Z,9.85
2019-04-29T05:33:23.492Z,8.88
2019-04-29T05:36:03.993Z,9.28
2019-04-29T05:38:44.082Z,8.33
2019-04-29T05:41:13.821Z,13.68
2019-04-29T05:43:49.756Z,10.93
2019-04-29T05:46:21.516Z,9.13
2019-04-29T05:48:54.267Z,9.15
2019-04-29T05:51:28.579Z,9.37
2019-04-29T05:54:12.038Z,11.88
2019-04-29T05:56:41.777Z,9.68
2019-04-29T05:59:12.938Z,8.55
2019-04-29T06:01:47.049Z,8.88
2019-04-29T06:04:16.278Z,12.50
2019-04-29T06:06:45.125Z,7.87
2019-04-29T06:09:16.761Z,7.03
2019-04-29T06:11:46.078Z,10.13
2019-04-29T06:14:15.789Z,7.15
2019-04-29T06:16:45.397Z,13.93
2019-04-29T06:19:15.109Z,7.97
2019-04-29T06:21:44.715Z,7.83
2019-04-29T06:24:14.397Z,8.00
2019-04-29T06:26:44.109Z,10.98
2019-04-29T06:29:13.844Z,6.72
2019-04-29T06:31:45.136Z,9.30
2019-04-29T06:34:14.802Z,8.67
2019-04-29T06:36:44.510Z,17.55
2019-04-29T06:39:14.117Z,9.75
2019-04-29T06:41:46.897Z,9.50
2019-04-29T06:44:16.736Z,12.63
2019-04-29T06:46:50.241Z,6.72
2019-04-29T06:49:17.639Z,9.50
2019-04-29T06:51:47.352Z,8.70
2019-04-29T06:54:16.986Z,8.40
2019-04-29T06:56:46.671Z,11.88
2019-04-29T06:59:16.275Z,8.65
2019-04-29T07:01:46.015Z,10.95
2019-04-29T07:04:15.623Z,9.00
2019-04-29T07:06:56.646Z,11.00
2019-04-29T07:09:16.684Z,14.00
2019-04-29T07:11:46.391Z,8.00
2019-04-29T07:14:16.075Z,9.28
2019-04-29T07:16:45.811Z,11.60
2019-04-29T07:19:16.545Z,10.90
2019-04-29T07:21:47.036Z,8.05
2019-04-29T07:24:20.211Z,12.20
2019-04-29T07:26:48.752Z,14.70
2019-04-29T07:29:18.830Z,12.30
2019-04-29T07:31:48.887Z,9.55
2019-04-29T07:34:19.644Z,10.30
2019-04-29T07:36:53.116Z,9.58
2019-04-29T07:39:20.555Z,14.80
2019-04-29T07:41:53.749Z,9.93
2019-04-29T07:44:21.530Z,8.87
2019-04-29T07:46:59.108Z,8.78
2019-04-29T07:49:27.197Z,12.35
2019-04-29T07:51:58.631Z,13.18
2019-04-29T07:54:28.227Z,9.17
2019-04-29T07:56:58.143Z,12.78
2019-04-29T07:59:27.881Z,8.90
2019-04-29T08:01:59.772Z,10.93
2019-04-29T08:04:28.837Z,10.53
2019-04-29T08:06:58.550Z,13.03
2019-04-29T08:09:30.100Z,11.40
2019-04-29T08:11:59.708Z,8.93
2019-04-29T08:14:29.317Z,8.15
2019-04-29T08:16:59.028Z,12.37
2019-04-29T08:19:31.395Z,10.95
2019-04-29T08:22:00.085Z,13.40
2019-04-29T08:24:50.439Z,11.30
2019-04-29T08:27:20.496Z,9.28
2019-04-29T08:29:51.962Z,10.18
2019-04-29T08:32:23.406Z,11.40
2019-04-29T08:34:53.603Z,11.78
2019-04-29T08:37:25.024Z,14.40
2019-04-29T08:40:14.948Z,11.95
2019-04-29T08:42:27.771Z,14.27
2019-04-29T08:45:03.507Z,14.15
2019-04-29T08:47:34.664Z,14.83
2019-04-29T08:50:04.859Z,13.50
2019-04-29T08:52:34.596Z,11.05
2019-04-29T08:55:04.811Z,14.18
2019-04-29T08:57:36.565Z,12.07
2019-04-29T09:00:08.692Z,10.45
2019-04-29T09:02:41.276Z,9.73
2019-04-29T09:05:11.280Z,17.87
2019-04-29T09:07:41.253Z,14.63
2019-04-29T09:10:10.966Z,14.47
2019-04-29T09:12:40.673Z,10.13
2019-04-29T09:15:10.384Z,10.20
2019-04-29T09:17:41.046Z,14.80
2019-04-29T09:20:10.725Z,14.90
2019-04-29T09:22:44.838Z,16.65
2019-04-29T09:25:28.372Z,12.80
2019-04-29T09:28:08.425Z,14.78
2019-04-29T09:30:38.716Z,9.60
2019-04-29T09:33:12.830Z,14.23
2019-04-29T09:35:40.555Z,16.87
2019-04-29T09:38:10.445Z,14.58
2019-04-29T09:40:41.686Z,13.30
2019-04-29T09:43:26.211Z,16.48
2019-04-29T09:46:06.071Z,19.52
2019-04-29T09:48:35.495Z,20.90
2019-04-29T09:51:16.603Z,13.58
2019-04-29T09:53:36.450Z,14.40
2019-04-29T09:56:07.847Z,16.55
2019-04-29T09:58:37.615Z,15.00
2019-04-29T10:01:13.730Z,14.73
2019-04-29T10:03:53.798Z,14.47
2019-04-29T10:06:27.712Z,15.43
2019-04-29T10:08:57.445Z,14.28
2019-04-29T10:11:27.127Z,10.70
2019-04-29T10:13:57.044Z,11.85
2019-04-29T10:16:31.642Z,13.10
2019-04-29T10:19:05.187Z,13.80
2019-04-29T10:21:35.316Z,16.10
2019-04-29T10:24:05.099Z,15.25
2019-04-29T10:26:34.837Z,11.30
2019-04-29T10:29:18.438Z,11.80
2019-04-29T10:31:46.313Z,14.03
2019-04-29T10:34:16.463Z,13.95
2019-04-29T10:36:46.479Z,12.13
2019-04-29T10:39:32.476Z,14.45
2019-04-29T10:42:03.791Z,12.07
2019-04-29T10:44:37.463Z,13.93
2019-04-29T10:47:21.876Z,13.50
2019-04-29T10:49:56.172Z,16.55
2019-04-29T10:52:26.109Z,13.95
2019-04-29T10:54:56.689Z,12.30
2019-04-29T10:57:29.312Z,9.18
2019-04-29T11:00:01.141Z,10.38
2019-04-29T11:02:33.934Z,13.80
2019-04-29T11:05:16.039Z,9.83
2019-04-29T11:07:48.124Z,10.88
2019-04-29T11:10:25.184Z,11.77
2019-04-29T11:12:50.699Z,16.10
2019-04-29T11:15:23.551Z,14.63
2019-04-29T11:17:59.318Z,10.68
2019-04-29T11:20:27.565Z,11.50
2019-04-29T11:23:17.543Z,8.28
2019-04-29T11:26:04.863Z,10.78
2019-04-29T11:28:35.162Z,13.10
2019-04-29T11:31:04.873Z,12.80
2019-04-29T11:33:48.099Z,6.85
2019-04-29T11:36:19.348Z,7.80
2019-04-29T11:38:49.030Z,7.10
2019-04-29T11:41:19.945Z,7.70
2019-04-29T11:43:51.134Z,8.20
2019-04-29T11:46:22.691Z,8.17
2019-04-29T11:48:53.912Z,10.90
2019-04-29T11:51:49.308Z,10.23
2019-04-29T11:54:12.275Z,9.45
2019-04-29T11:56:39.916Z,7.23
2019-04-29T11:59:29.825Z,6.25
2019-04-29T12:02:17.479Z,7.15
2019-04-29T12:04:57.437Z,8.13
2019-04-29T12:07:32.389Z,8.25
2019-04-29T12:10:02.218Z,8.77
2019-04-29T12:12:29.834Z,5.30
2019-04-29T12:15:00.999Z,5.70
2019-04-29T12:17:44.205Z,9.50
2019-04-29T12:20:15.423Z,8.98
2019-04-29T12:22:48.568Z,11.40
2019-04-29T12:25:16.409Z,8.28
2019-04-29T12:27:46.118Z,7.22
2019-04-29T12:30:24.637Z,9.50
2019-04-29T12:33:06.098Z,11.90
2019-04-29T12:35:51.043Z,7.40
2019-04-29T12:38:39.581Z,7.37
2019-04-29T12:41:21.390Z,6.87
2019-04-29T12:44:02.067Z,5.33
2019-04-29T12:46:45.430Z,6.05
2019-04-29T12:49:15.142Z,7.40
2019-04-29T12:51:44.780Z,10.15
2019-04-29T12:54:14.430Z,9.70
2019-04-29T12:56:47.631Z,7.95
2019-04-29T12:59:17.123Z,13.40
2019-04-29T13:02:00.849Z,11.33
2019-04-29T13:04:45.004Z,10.32
2019-04-29T13:07:19.947Z,6.35
2019-04-29T13:09:52.216Z,7.15
2019-04-29T13:12:21.851Z,7.50
2019-04-29T13:15:02.528Z,8.45
2019-04-29T13:17:26.502Z,7.92
2019-04-29T13:20:02.192Z,8.55
2019-04-29T13:22:30.114Z,7.80
2019-04-29T13:24:59.824Z,11.60
2019-04-29T13:27:29.494Z,8.20
2019-04-29T13:29:59.346Z,9.68
2019-04-29T13:32:29.831Z,8.53
2019-04-29T13:35:05.388Z,5.60
2019-04-29T13:37:33.159Z,7.60
2019-04-29T13:40:03.006Z,6.67
2019-04-29T13:42:33.427Z,7.15
2019-04-29T13:45:12.550Z,10.65
2019-04-29T13:47:36.301Z,8.95
2019-04-29T13:50:23.540Z,7.53
2019-04-29T13:52:48.654Z,7.62
2019-04-29T13:55:46.227Z,7.35
2019-04-29T13:57:54.633Z,8.23
2019-04-29T14:00:26.354Z,5.97
2019-04-29T14:03:13.023Z,6.83
2019-04-29T14:05:44.745Z,5.85
2019-04-29T14:08:14.348Z,6.80
2019-04-29T14:10:46.917Z,6.55
2019-04-29T14:13:17.606Z,7.60
2019-04-29T14:15:46.763Z,6.07
2019-04-29T14:18:16.447Z,5.53
2019-04-29T14:20:47.256Z,8.10
2019-04-29T14:23:19.187Z,7.45
2019-04-29T14:25:48.851Z,8.33
2019-04-29T14:28:18.486Z,8.83
2019-04-29T14:30:49.235Z,8.55
2019-04-29T14:33:24.197Z,11.43
2019-04-29T14:35:53.527Z,8.03
2019-04-29T14:38:24.345Z,7.72
2019-04-29T14:40:54.081Z,8.50
2019-04-29T14:43:41.426Z,7.08
2019-04-29T14:46:29.262Z,7.67
2019-04-29T14:49:16.789Z,8.05
2019-04-29T14:51:46.601Z,7.75
2019-04-29T14:54:16.312Z,9.58
2019-04-29T14:56:45.897Z,9.78
2019-04-29T14:59:15.680Z,8.75
2019-04-29T15:01:48.393Z,9.13
2019-04-29T15:04:30.611Z,10.65
2019-04-29T15:07:00.265Z,7.58
2019-04-29T15:09:30.049Z,9.65
2019-04-29T15:12:01.629Z,11.30
2019-04-29T15:14:38.773Z,10.15
2019-04-29T15:17:10.019Z,9.40
2019-04-29T15:19:48.682Z,9.48
2019-04-29T15:22:17.119Z,9.38
2019-04-29T15:24:46.803Z,11.77
2019-04-29T15:27:16.511Z,8.38
2019-04-29T15:29:46.249Z,7.10
2019-04-29T15:32:17.860Z,7.95
2019-04-29T15:37:18.574Z,8.93
2019-04-29T15:39:48.265Z,10.23
2019-04-29T15:42:17.974Z,6.87
2019-04-29T15:44:47.662Z,10.98
2019-04-29T15:47:19.001Z,10.90
2019-04-29T15:49:48.743Z,11.68
2019-04-29T15:52:21.012Z,11.93
2019-04-29T15:54:52.394Z,9.43
2019-04-29T15:57:22.253Z,8.35
2019-04-29T15:59:58.495Z,9.75
2019-04-29T16:02:23.342Z,13.37
2019-04-29T16:04:55.679Z,14.45
2019-04-29T16:07:29.897Z,12.47
2019-04-29T16:10:14.421Z,8.53
2019-04-29T16:12:50.904Z,12.00
2019-04-29T16:15:19.944Z,10.82
2019-04-29T16:17:50.638Z,11.22
2019-04-29T16:20:21.387Z,18.12
2019-04-29T16:22:54.125Z,19.48
2019-04-29T16:25:22.471Z,17.80
2019-04-29T16:27:53.529Z,14.60
2019-04-29T16:30:26.221Z,17.17
2019-04-29T16:32:55.056Z,14.45
2019-04-29T16:35:27.103Z,17.77
2019-04-29T16:37:56.141Z,21.37
2019-04-29T16:40:27.362Z,18.52
2019-04-29T16:43:01.610Z,16.67
2019-04-29T16:45:38.870Z,17.90
2019-04-29T16:48:10.527Z,19.12
2019-04-29T16:50:39.949Z,22.73
2019-04-29T16:53:09.630Z,22.00
2019-04-29T16:55:43.177Z,13.88
2019-04-29T16:58:17.652Z,18.62
2019-04-29T17:00:46.706Z,22.07
2019-04-29T17:03:14.233Z,21.40
2019-04-29T17:05:43.943Z,22.73
2019-04-29T17:08:15.443Z,27.32
2019-04-29T17:10:49.055Z,13.50
2019-04-29T17:13:23.628Z,18.85
2019-04-29T17:15:52.346Z,18.37
2019-04-29T17:18:22.471Z,15.83
2019-04-29T17:20:52.144Z,23.55
2019-04-29T17:23:24.530Z,25.95
2019-04-29T17:25:53.197Z,17.83
2019-04-29T17:28:29.007Z,21.02
2019-04-29T17:31:15.454Z,21.75
2019-04-29T17:33:49.980Z,17.60
2019-04-29T17:36:23.595Z,16.37
2019-04-29T17:38:49.393Z,19.97
2019-04-29T17:41:20.177Z,21.65
2019-04-29T17:44:08.719Z,25.35
2019-04-29T17:46:42.384Z,22.60
2019-04-29T17:49:30.668Z,21.42
2019-04-29T17:52:02.952Z,21.48
2019-04-29T17:54:34.755Z,22.07
2019-04-29T17:57:25.676Z,28.05
2019-04-29T17:59:40.736Z,27.22
2019-04-29T18:02:21.794Z,19.42
2019-04-29T18:04:57.257Z,18.30
2019-04-29T18:07:26.835Z,17.70
2019-04-29T18:10:01.082Z,18.77
2019-04-29T18:12:37.668Z,19.27
2019-04-29T18:15:03.561Z,16.23
2019-04-29T18:17:36.223Z,13.90
2019-04-29T18:20:29.745Z,13.75
2019-04-29T18:22:49.363Z,12.00
2019-04-29T18:25:31.239Z,17.93
2019-04-29T18:28:00.266Z,13.28
2019-04-29T18:30:35.670Z,15.00
2019-04-29T18:33:01.243Z,17.17
2019-04-29T18:35:30.918Z,13.28
2019-04-29T18:38:00.661Z,18.02
2019-04-29T18:40:34.655Z,13.43
2019-04-29T18:43:01.593Z,12.10
2019-04-29T18:45:34.494Z,16.32
2019-04-29T18:48:02.578Z,12.23
2019-04-29T18:50:34.296Z,16.50
2019-04-29T18:53:06.796Z,14.03
2019-04-29T18:55:35.383Z,14.47
2019-04-29T18:58:06.177Z,13.35
2019-04-29T19:00:36.346Z,14.68
2019-04-29T19:03:06.628Z,12.78
2019-04-29T19:05:38.192Z,11.78
2019-04-29T19:08:14.019Z,13.47
2019-04-29T19:10:39.114Z,13.33
2019-04-29T19:13:12.703Z,13.35
2019-04-29T19:15:46.936Z,15.87
2019-04-29T19:18:16.796Z,11.53
2019-04-29T19:20:46.082Z,11.43
2019-04-29T19:23:16.156Z,12.70
2019-04-29T19:25:49.593Z,10.78
2019-04-29T19:28:29.556Z,10.57
2019-04-29T19:30:48.837Z,10.37
2019-04-29T19:33:18.650Z,10.63
2019-04-29T19:35:48.331Z,12.50
2019-04-29T19:38:18.070Z,12.80
2019-04-29T19:40:47.781Z,14.18
2019-04-29T19:43:19.065Z,11.25
2019-04-29T19:45:50.354Z,9.63
2019-04-29T19:48:22.384Z,12.37
2019-04-29T19:51:13.424Z,9.87
2019-04-29T19:53:22.782Z,12.87
2019-04-29T19:56:03.540Z,13.32
2019-04-29T19:58:31.184Z,10.95
2019-04-29T20:00:57.312Z,14.10
2019-04-29T20:03:35.902Z,11.95
2019-04-29T20:06:08.984Z,14.33
2019-04-29T20:08:51.179Z,14.23
2019-04-29T20:11:14.059Z,17.25
2019-04-29T20:13:42.278Z,19.30
2019-04-29T20:16:42.693Z,15.43
2019-04-29T20:19:12.284Z,14.05
2019-04-29T20:21:37.358Z,11.57
2019-04-29T20:24:09.649Z,12.70
2019-04-29T20:26:38.633Z,13.87
2019-04-29T20:29:08.525Z,11.85
2019-04-29T20:31:39.102Z,12.25
2019-04-29T20:34:09.834Z,11.57
2019-04-29T20:36:42.821Z,15.40
2019-04-29T20:39:15.242Z,13.30
2019-04-29T20:41:44.733Z,15.87
2019-04-29T20:44:13.427Z,13.27
2019-04-29T20:47:00.765Z,12.73
2019-04-29T20:49:16.163Z,16.17
2019-04-29T20:51:52.138Z,11.80
2019-04-29T20:54:25.218Z,15.50
2019-04-29T20:57:03.021Z,12.63
2019-04-29T20:59:26.279Z,19.30
2019-04-29T21:02:11.963Z,16.85
2019-04-29T21:04:39.134Z,14.25
2019-04-29T21:07:04.758Z,16.73
2019-04-29T21:09:35.603Z,13.45
2019-04-29T21:12:25.549Z,12.47
2019-04-29T21:14:59.148Z,12.88
2019-04-29T21:17:31.490Z,12.65
2019-04-29T21:19:59.013Z,12.70
2019-04-29T21:22:28.593Z,13.10
2019-04-29T21:24:58.329Z,12.98
2019-04-29T21:27:27.939Z,14.65
2019-04-29T21:29:57.618Z,12.30
2019-04-29T21:32:30.482Z,16.65
2019-04-29T21:35:18.572Z,16.48
2019-04-29T21:37:50.794Z,14.07
2019-04-29T21:40:24.246Z,15.08
2019-04-29T21:42:57.633Z,12.90
2019-04-29T21:45:27.344Z,18.07
2019-04-29T21:47:56.952Z,13.08
2019-04-29T21:50:33.712Z,14.33
2019-04-29T21:53:02.136Z,11.00
2019-04-29T21:55:29.463Z,11.50
2019-04-29T21:58:00.199Z,11.88
2019-04-29T22:00:30.112Z,11.78
2019-04-29T22:03:01.357Z,10.77
2019-04-29T22:05:31.039Z,12.47
2019-04-29T22:08:00.852Z,12.58
2019-04-29T22:10:31.483Z,10.50
2019-04-29T22:13:02.361Z,15.83
2019-04-29T22:15:37.365Z,13.98
2019-04-29T22:18:07.258Z,16.53
2019-04-29T22:20:37.522Z,15.10
2019-04-29T22:23:13.006Z,9.97
2019-04-29T22:25:41.123Z,9.67
2019-04-29T22:28:10.786Z,16.05
2019-04-29T22:30:41.071Z,10.07
2019-04-29T22:33:10.680Z,12.20
2019-04-29T22:35:40.896Z,11.10
2019-04-29T22:38:12.532Z,12.10
2019-04-29T22:40:42.964Z,14.47
2019-04-29T22:43:16.786Z,12.33
2019-04-29T22:45:46.601Z,11.00
2019-04-29T22:48:19.543Z,12.43
2019-04-29T22:50:47.557Z,12.68
2019-04-29T22:53:17.138Z,11.08
2019-04-29T22:55:46.846Z,13.08
2019-04-29T22:58:16.589Z,14.05
2019-04-29T23:00:46.296Z,12.28
2019-04-29T23:03:16.927Z,11.20
2019-04-29T23:05:46.639Z,12.30
2019-04-29T23:08:16.245Z,12.78
2019-04-29T23:10:47.737Z,14.03
2019-04-29T23:13:17.379Z,14.05
2019-04-29T23:15:47.115Z,12.37
2019-04-29T23:18:24.547Z,18.12
2019-04-29T23:21:07.168Z,13.37
2019-04-29T23:23:38.466Z,12.58
2019-04-29T23:26:08.280Z,14.40
2019-04-29T23:28:37.964Z,15.43
2019-04-29T23:31:07.670Z,16.65
2019-04-29T23:33:37.409Z,15.28
2019-04-29T23:36:09.719Z,14.28
2019-04-29T23:38:42.333Z,15.43
2019-04-29T23:41:09.891Z,17.40
2019-04-29T23:43:39.629Z,12.90
2019-04-29T23:46:09.314Z,16.60
2019-04-29T23:48:40.764Z,14.50
2019-04-29T23:51:10.500Z,13.62
2019-04-29T23:53:40.215Z,12.05
2019-04-29T23:56:09.971Z,18.07
2019-04-29T23:58:56.322Z,14.43
